sensor_id;sensor_type;location;lat;lon;timestamp;pressure;altitude;pressure_sealevel;temperature;humidity
18436;BME280;9346;52.006;4.720;2023-03-13T00:00:28;100053.47;;;10.33;100.00
18436;BME280;9346;52.006;4.720;2023-03-13T00:02:55;100046.06;;;10.33;100.00
18436;BME280;9346;52.006;4.720;2023-03-13T00:05:22;100044.69;;;10.31;100.00
18436;BME280;9346;52.006;4.720;2023-03-13T00:07:49;100040.00;;;10.31;100.00
18436;BME280;9346;52.006;4.720;2023-03-13T00:10:15;100030.63;;;10.32;100.00
18436;BME280;9346;52.006;4.720;2023-03-13T00:12:42;100022.06;;;10.34;100.00
18436;BME280;9346;52.006;4.720;2023-03-13T00:15:10;100018.81;;;10.32;100.00
18436;BME280;9346;52.006;4.720;2023-03-13T00:17:38;100005.56;;;10.34;100.00
18436;BME280;9346;52.006;4.720;2023-03-13T00:20:05;100000.34;;;10.32;100.00
18436;BME280;9346;52.006;4.720;2023-03-13T00:22:34;100000.88;;;10.34;100.00
18436;BME280;9346;52.006;4.720;2023-03-13T00:25:01;99990.13;;;10.38;100.00
18436;BME280;9346;52.006;4.720;2023-03-13T00:27:31;99974.69;;;10.37;100.00
18436;BME280;9346;52.006;4.720;2023-03-13T00:29:59;99972.78;;;10.37;100.00
18436;BME280;9346;52.006;4.720;2023-03-13T00:32:26;99962.00;;;10.41;100.00
18436;BME280;9346;52.006;4.720;2023-03-13T00:34:55;99959.56;;;10.39;100.00
18436;BME280;9346;52.006;4.720;2023-03-13T00:37:22;99950.16;;;10.40;100.00
18436;BME280;9346;52.006;4.720;2023-03-13T00:39:49;99945.16;;;10.42;100.00
18436;BME280;9346;52.006;4.720;2023-03-13T00:42:16;99937.75;;;10.43;100.00
18436;BME280;9346;52.006;4.720;2023-03-13T00:44:43;99934.16;;;10.42;100.00
18436;BME280;9346;52.006;4.720;2023-03-13T00:47:10;99932.47;;;10.46;100.00
18436;BME280;9346;52.006;4.720;2023-03-13T00:49:37;99923.09;;;10.47;100.00
18436;BME280;9346;52.006;4.720;2023-03-13T00:52:06;99915.97;;;10.46;100.00
18436;BME280;9346;52.006;4.720;2023-03-13T00:54:33;99905.16;;;10.50;100.00
18436;BME280;9346;52.006;4.720;2023-03-13T00:57:00;99899.06;;;10.53;100.00
18436;BME280;9346;52.006;4.720;2023-03-13T00:59:27;99900.44;;;10.55;100.00
18436;BME280;9346;52.006;4.720;2023-03-13T01:01:54;99899.28;;;10.56;100.00
18436;BME280;9346;52.006;4.720;2023-03-13T01:04:21;99885.22;;;10.58;100.00
18436;BME280;9346;52.006;4.720;2023-03-13T01:06:48;99876.16;;;10.57;100.00
18436;BME280;9346;52.006;4.720;2023-03-13T01:09:16;99875.25;;;10.62;100.00
18436;BME280;9346;52.006;4.720;2023-03-13T01:11:45;99870.56;;;10.62;100.00
18436;BME280;9346;52.006;4.720;2023-03-13T01:14:13;99866.94;;;10.67;100.00
18436;BME280;9346;52.006;4.720;2023-03-13T01:16:41;99863.06;;;10.68;100.00
18436;BME280;9346;52.006;4.720;2023-03-13T01:19:09;99854.50;;;10.69;100.00
18436;BME280;9346;52.006;4.720;2023-03-13T01:21:37;99847.84;;;10.70;100.00
18436;BME280;9346;52.006;4.720;2023-03-13T01:24:05;99849.19;;;10.73;100.00
18436;BME280;9346;52.006;4.720;2023-03-13T01:26:34;99828.22;;;10.77;100.00
18436;BME280;9346;52.006;4.720;2023-03-13T01:29:01;99832.06;;;10.76;100.00
18436;BME280;9346;52.006;4.720;2023-03-13T01:31:30;99829.78;;;10.83;100.00
18436;BME280;9346;52.006;4.720;2023-03-13T01:33:58;99830.28;;;10.85;100.00
18436;BME280;9346;52.006;4.720;2023-03-13T01:36:27;99832.25;;;10.84;100.00
18436;BME280;9346;52.006;4.720;2023-03-13T01:38:56;99822.53;;;10.87;100.00
18436;BME280;9346;52.006;4.720;2023-03-13T01:41:24;99820.75;;;10.96;100.00
18436;BME280;9346;52.006;4.720;2023-03-13T01:43:53;99818.50;;;10.98;100.00
18436;BME280;9346;52.006;4.720;2023-03-13T01:46:21;99801.06;;;11.02;100.00
18436;BME280;9346;52.006;4.720;2023-03-13T01:48:51;99791.97;;;11.02;100.00
18436;BME280;9346;52.006;4.720;2023-03-13T01:51:23;99789.97;;;11.07;100.00
18436;BME280;9346;52.006;4.720;2023-03-13T01:53:56;99790.16;;;11.11;100.00
18436;BME280;9346;52.006;4.720;2023-03-13T01:56:31;99778.63;;;11.09;100.00
18436;BME280;9346;52.006;4.720;2023-03-13T01:59:04;99770.56;;;11.12;100.00
18436;BME280;9346;52.006;4.720;2023-03-13T02:01:34;99767.19;;;11.15;100.00
18436;BME280;9346;52.006;4.720;2023-03-13T02:04:03;99757.50;;;11.18;100.00
18436;BME280;9346;52.006;4.720;2023-03-13T02:06:32;99749.75;;;11.20;100.00
18436;BME280;9346;52.006;4.720;2023-03-13T02:09:06;99745.88;;;11.21;100.00
18436;BME280;9346;52.006;4.720;2023-03-13T02:11:43;99748.84;;;11.24;100.00
18436;BME280;9346;52.006;4.720;2023-03-13T02:14:12;99736.69;;;11.25;100.00
18436;BME280;9346;52.006;4.720;2023-03-13T02:16:41;99735.28;;;11.28;100.00
18436;BME280;9346;52.006;4.720;2023-03-13T02:19:19;99725.06;;;11.28;100.00
18436;BME280;9346;52.006;4.720;2023-03-13T02:21:53;99730.78;;;11.32;100.00
18436;BME280;9346;52.006;4.720;2023-03-13T02:24:30;99717.19;;;11.35;100.00
18436;BME280;9346;52.006;4.720;2023-03-13T02:27:01;99731.81;;;11.36;100.00
18436;BME280;9346;52.006;4.720;2023-03-13T02:29:29;99721.00;;;11.40;100.00
18436;BME280;9346;52.006;4.720;2023-03-13T02:31:56;99715.19;;;11.41;100.00
18436;BME280;9346;52.006;4.720;2023-03-13T02:34:27;99723.94;;;11.43;100.00
18436;BME280;9346;52.006;4.720;2023-03-13T02:36:57;99728.31;;;11.44;100.00
18436;BME280;9346;52.006;4.720;2023-03-13T02:39:25;99732.13;;;11.48;100.00
18436;BME280;9346;52.006;4.720;2023-03-13T02:41:53;99727.63;;;11.52;100.00
18436;BME280;9346;52.006;4.720;2023-03-13T02:44:23;99730.78;;;11.59;100.00
18436;BME280;9346;52.006;4.720;2023-03-13T02:46:50;99725.56;;;11.58;100.00
18436;BME280;9346;52.006;4.720;2023-03-13T02:49:24;99717.50;;;11.61;100.00
18436;BME280;9346;52.006;4.720;2023-03-13T02:51:53;99732.66;;;11.64;100.00
18436;BME280;9346;52.006;4.720;2023-03-13T02:54:26;99713.56;;;11.67;100.00
18436;BME280;9346;52.006;4.720;2023-03-13T02:56:56;99714.88;;;11.70;100.00
18436;BME280;9346;52.006;4.720;2023-03-13T02:59:26;99734.69;;;11.72;100.00
18436;BME280;9346;52.006;4.720;2023-03-13T03:01:53;99723.84;;;11.75;100.00
18436;BME280;9346;52.006;4.720;2023-03-13T03:04:21;99713.66;;;11.76;100.00
18436;BME280;9346;52.006;4.720;2023-03-13T03:06:49;99711.06;;;11.79;100.00
18436;BME280;9346;52.006;4.720;2023-03-13T03:09:17;99699.72;;;11.81;100.00
18436;BME280;9346;52.006;4.720;2023-03-13T03:11:44;99701.06;;;11.83;100.00
18436;BME280;9346;52.006;4.720;2023-03-13T03:14:11;99689.19;;;11.83;100.00
18436;BME280;9346;52.006;4.720;2023-03-13T03:16:40;99689.72;;;11.85;100.00
18436;BME280;9346;52.006;4.720;2023-03-13T03:19:08;99681.00;;;11.91;100.00
18436;BME280;9346;52.006;4.720;2023-03-13T03:21:35;99676.81;;;11.94;100.00
18436;BME280;9346;52.006;4.720;2023-03-13T03:24:03;99674.34;;;11.92;100.00
18436;BME280;9346;52.006;4.720;2023-03-13T03:26:29;99670.19;;;11.95;100.00
18436;BME280;9346;52.006;4.720;2023-03-13T03:28:56;99673.94;;;11.99;100.00
18436;BME280;9346;52.006;4.720;2023-03-13T03:31:23;99674.75;;;11.99;100.00
18436;BME280;9346;52.006;4.720;2023-03-13T03:33:51;99684.34;;;12.02;100.00
18436;BME280;9346;52.006;4.720;2023-03-13T03:36:21;99681.78;;;12.05;100.00
18436;BME280;9346;52.006;4.720;2023-03-13T03:38:49;99688.94;;;12.06;100.00
18436;BME280;9346;52.006;4.720;2023-03-13T03:41:16;99679.44;;;12.12;100.00
18436;BME280;9346;52.006;4.720;2023-03-13T03:43:44;99676.66;;;12.12;100.00
18436;BME280;9346;52.006;4.720;2023-03-13T03:46:11;99668.88;;;12.14;100.00
18436;BME280;9346;52.006;4.720;2023-03-13T03:48:39;99673.28;;;12.15;100.00
18436;BME280;9346;52.006;4.720;2023-03-13T03:51:08;99661.41;;;12.15;100.00
18436;BME280;9346;52.006;4.720;2023-03-13T03:53:36;99668.56;;;12.16;100.00
18436;BME280;9346;52.006;4.720;2023-03-13T03:56:03;99661.09;;;12.16;100.00
18436;BME280;9346;52.006;4.720;2023-03-13T03:58:31;99662.72;;;12.17;100.00
18436;BME280;9346;52.006;4.720;2023-03-13T04:00:58;99663.25;;;12.19;100.00
18436;BME280;9346;52.006;4.720;2023-03-13T04:03:24;99655.75;;;12.20;100.00
18436;BME280;9346;52.006;4.720;2023-03-13T04:05:52;99648.28;;;12.20;100.00
18436;BME280;9346;52.006;4.720;2023-03-13T04:08:20;99653.19;;;12.23;100.00
18436;BME280;9346;52.006;4.720;2023-03-13T04:10:47;99652.38;;;12.23;100.00
18436;BME280;9346;52.006;4.720;2023-03-13T04:13:15;99644.41;;;12.21;100.00
18436;BME280;9346;52.006;4.720;2023-03-13T04:15:42;99635.19;;;12.26;100.00
18436;BME280;9346;52.006;4.720;2023-03-13T04:18:09;99654.81;;;12.24;100.00
18436;BME280;9346;52.006;4.720;2023-03-13T04:20:36;99639.59;;;12.27;100.00
18436;BME280;9346;52.006;4.720;2023-03-13T04:23:03;99635.19;;;12.26;100.00
18436;BME280;9346;52.006;4.720;2023-03-13T04:25:31;99634.38;;;12.25;100.00
18436;BME280;9346;52.006;4.720;2023-03-13T04:27:58;99627.72;;;12.26;100.00
18436;BME280;9346;52.006;4.720;2023-03-13T04:30:25;99614.75;;;12.27;100.00
18436;BME280;9346;52.006;4.720;2023-03-13T04:32:52;99629.84;;;12.29;100.00
18436;BME280;9346;52.006;4.720;2023-03-13T04:35:19;99633.75;;;12.28;100.00
18436;BME280;9346;52.006;4.720;2023-03-13T04:37:46;99637.81;;;12.31;100.00
18436;BME280;9346;52.006;4.720;2023-03-13T04:40:13;99622.88;;;12.32;100.00
18436;BME280;9346;52.006;4.720;2023-03-13T04:42:42;99621.25;;;12.31;100.00
18436;BME280;9346;52.006;4.720;2023-03-13T04:45:10;99618.19;;;12.32;100.00
18436;BME280;9346;52.006;4.720;2023-03-13T04:47:38;99625.31;;;12.33;100.00
18436;BME280;9346;52.006;4.720;2023-03-13T04:50:05;99625.31;;;12.33;100.00
18436;BME280;9346;52.006;4.720;2023-03-13T04:52:32;99613.66;;;12.36;100.00
18436;BME280;9346;52.006;4.720;2023-03-13T04:54:59;99590.44;;;12.37;100.00
18436;BME280;9346;52.006;4.720;2023-03-13T04:57:26;99605.06;;;12.38;100.00
18436;BME280;9346;52.006;4.720;2023-03-13T04:59:54;99586.25;;;12.40;100.00
18436;BME280;9346;52.006;4.720;2023-03-13T05:02:21;99593.06;;;12.42;100.00
18436;BME280;9346;52.006;4.720;2023-03-13T05:04:48;99590.63;;;12.41;100.00
18436;BME280;9346;52.006;4.720;2023-03-13T05:07:15;99579.25;;;12.42;100.00
18436;BME280;9346;52.006;4.720;2023-03-13T05:09:42;99585.00;;;12.46;100.00
18436;BME280;9346;52.006;4.720;2023-03-13T05:12:09;99579.63;;;12.49;100.00
18436;BME280;9346;52.006;4.720;2023-03-13T05:14:36;99563.56;;;12.51;100.00
18436;BME280;9346;52.006;4.720;2023-03-13T05:17:05;99554.13;;;12.52;100.00
18436;BME280;9346;52.006;4.720;2023-03-13T05:19:32;99561.16;;;12.58;100.00
18436;BME280;9346;52.006;4.720;2023-03-13T05:21:59;99549.47;;;12.61;100.00
18436;BME280;9346;52.006;4.720;2023-03-13T05:24:26;99544.94;;;12.65;100.00
18436;BME280;9346;52.006;4.720;2023-03-13T05:26:52;99528.34;;;12.65;100.00
18436;BME280;9346;52.006;4.720;2023-03-13T05:29:19;99524.44;;;12.66;100.00
18436;BME280;9346;52.006;4.720;2023-03-13T05:31:46;99526.09;;;12.67;100.00
18436;BME280;9346;52.006;4.720;2023-03-13T05:34:15;99518.28;;;12.69;100.00
18436;BME280;9346;52.006;4.720;2023-03-13T05:36:42;99507.25;;;12.69;100.00
18436;BME280;9346;52.006;4.720;2023-03-13T05:39:10;99507.25;;;12.69;100.00
18436;BME280;9346;52.006;4.720;2023-03-13T05:41:37;99498.97;;;12.69;100.00
18436;BME280;9346;52.006;4.720;2023-03-13T05:44:04;99507.75;;;12.71;100.00
18436;BME280;9346;52.006;4.720;2023-03-13T05:46:31;99499.97;;;12.73;100.00
18436;BME280;9346;52.006;4.720;2023-03-13T05:48:58;99486.94;;;12.74;100.00
18436;BME280;9346;52.006;4.720;2023-03-13T05:51:26;99482.91;;;12.80;100.00
18436;BME280;9346;52.006;4.720;2023-03-13T05:53:53;99488.94;;;12.82;100.00
18436;BME280;9346;52.006;4.720;2023-03-13T05:56:20;99482.44;;;12.86;100.00
18436;BME280;9346;52.006;4.720;2023-03-13T05:58:47;99470.09;;;12.92;100.00
18436;BME280;9346;52.006;4.720;2023-03-13T06:01:14;99477.72;;;12.95;100.00
18436;BME280;9346;52.006;4.720;2023-03-13T06:03:41;99476.94;;;12.95;100.00
18436;BME280;9346;52.006;4.720;2023-03-13T06:06:08;99474.97;;;12.95;100.00
18436;BME280;9346;52.006;4.720;2023-03-13T06:08:36;99480.50;;;12.95;100.00
18436;BME280;9346;52.006;4.720;2023-03-13T06:11:04;99477.41;;;12.97;100.00
18436;BME280;9346;52.006;4.720;2023-03-13T06:13:31;99480.81;;;12.94;100.00
18436;BME280;9346;52.006;4.720;2023-03-13T06:15:58;99478.56;;;12.96;100.00
18436;BME280;9346;52.006;4.720;2023-03-13T06:18:26;99482.94;;;12.97;100.00
18436;BME280;9346;52.006;4.720;2023-03-13T06:20:56;99484.91;;;12.96;100.00
18436;BME280;9346;52.006;4.720;2023-03-13T06:23:25;99492.25;;;13.01;100.00
18436;BME280;9346;52.006;4.720;2023-03-13T06:25:54;99489.00;;;12.99;100.00
18436;BME280;9346;52.006;4.720;2023-03-13T06:28:21;99495.97;;;12.96;100.00
18436;BME280;9346;52.006;4.720;2023-03-13T06:30:48;99499.84;;;12.95;100.00
18436;BME280;9346;52.006;4.720;2023-03-13T06:33:15;99501.63;;;12.91;100.00
18436;BME280;9346;52.006;4.720;2023-03-13T06:35:42;99494.97;;;12.92;100.00
18436;BME280;9346;52.006;4.720;2023-03-13T06:38:09;99510.22;;;12.90;100.00
18436;BME280;9346;52.006;4.720;2023-03-13T06:40:37;99501.78;;;12.86;100.00
18436;BME280;9346;52.006;4.720;2023-03-13T06:43:08;99515.59;;;12.86;100.00
18436;BME280;9346;52.006;4.720;2023-03-13T06:45:35;99507.97;;;12.83;100.00
18436;BME280;9346;52.006;4.720;2023-03-13T06:48:02;99511.69;;;12.79;100.00
18436;BME280;9346;52.006;4.720;2023-03-13T06:50:29;99511.50;;;12.75;100.00
18436;BME280;9346;52.006;4.720;2023-03-13T06:52:56;99522.72;;;12.70;100.00
18436;BME280;9346;52.006;4.720;2023-03-13T06:55:23;99522.00;;;12.65;100.00
18436;BME280;9346;52.006;4.720;2023-03-13T06:57:51;99519.72;;;12.58;100.00
18436;BME280;9346;52.006;4.720;2023-03-13T07:00:22;99521.97;;;12.56;100.00
18436;BME280;9346;52.006;4.720;2023-03-13T07:02:49;99509.63;;;12.54;100.00
18436;BME280;9346;52.006;4.720;2023-03-13T07:05:16;99523.13;;;12.55;100.00
18436;BME280;9346;52.006;4.720;2023-03-13T07:07:43;99529.28;;;12.52;100.00
18436;BME280;9346;52.006;4.720;2023-03-13T07:10:10;99517.72;;;12.50;100.00
18436;BME280;9346;52.006;4.720;2023-03-13T07:12:38;99529.09;;;12.49;100.00
18436;BME280;9346;52.006;4.720;2023-03-13T07:15:06;99516.09;;;12.49;100.00
18436;BME280;9346;52.006;4.720;2023-03-13T07:17:35;99519.50;;;12.46;100.00
18436;BME280;9346;52.006;4.720;2023-03-13T07:20:03;99515.59;;;12.47;100.00
18436;BME280;9346;52.006;4.720;2023-03-13T07:22:33;99536.06;;;12.46;100.00
18436;BME280;9346;52.006;4.720;2023-03-13T07:25:00;99533.63;;;12.45;100.00
18436;BME280;9346;52.006;4.720;2023-03-13T07:27:27;99526.16;;;12.45;100.00
18436;BME280;9346;52.006;4.720;2023-03-13T07:29:54;99525.66;;;12.43;100.00
18436;BME280;9346;52.006;4.720;2023-03-13T07:32:21;99552.47;;;12.43;100.00
18436;BME280;9346;52.006;4.720;2023-03-13T07:34:50;99554.41;;;12.42;100.00
18436;BME280;9346;52.006;4.720;2023-03-13T07:37:17;99537.84;;;12.42;100.00
18436;BME280;9346;52.006;4.720;2023-03-13T07:39:43;99536.38;;;12.45;100.00
18436;BME280;9346;52.006;4.720;2023-03-13T07:42:10;99541.59;;;12.46;100.00
18436;BME280;9346;52.006;4.720;2023-03-13T07:44:37;99544.34;;;12.46;100.00
18436;BME280;9346;52.006;4.720;2023-03-13T07:47:04;99547.00;;;12.51;100.00
18436;BME280;9346;52.006;4.720;2023-03-13T07:49:31;99540.84;;;12.54;100.00
18436;BME280;9346;52.006;4.720;2023-03-13T07:52:05;99528.00;;;12.58;100.00
18436;BME280;9346;52.006;4.720;2023-03-13T07:54:32;99517.63;;;12.64;100.00
18436;BME280;9346;52.006;4.720;2023-03-13T07:57:00;99514.22;;;12.67;100.00
18436;BME280;9346;52.006;4.720;2023-03-13T07:59:27;99511.16;;;12.68;100.00
18436;BME280;9346;52.006;4.720;2023-03-13T08:01:53;99513.28;;;12.71;100.00
18436;BME280;9346;52.006;4.720;2023-03-13T08:04:21;99512.97;;;12.73;100.00
18436;BME280;9346;52.006;4.720;2023-03-13T08:06:48;99520.59;;;12.76;100.00
18436;BME280;9346;52.006;4.720;2023-03-13T08:09:17;99515.41;;;12.74;100.00
18436;BME280;9346;52.006;4.720;2023-03-13T08:11:44;99520.09;;;12.74;100.00
18436;BME280;9346;52.006;4.720;2023-03-13T08:14:13;99512.66;;;12.83;100.00
18436;BME280;9346;52.006;4.720;2023-03-13T08:16:40;99518.22;;;12.91;100.00
18436;BME280;9346;52.006;4.720;2023-03-13T08:19:08;99516.59;;;12.90;100.00
18436;BME280;9346;52.006;4.720;2023-03-13T08:21:36;99507.47;;;12.90;100.00
18436;BME280;9346;52.006;4.720;2023-03-13T08:24:06;99499.50;;;12.88;100.00
18436;BME280;9346;52.006;4.720;2023-03-13T08:26:36;99510.56;;;12.88;100.00
18436;BME280;9346;52.006;4.720;2023-03-13T08:29:05;99491.22;;;12.88;100.00
18436;BME280;9346;52.006;4.720;2023-03-13T08:31:35;99508.94;;;12.87;100.00
18436;BME280;9346;52.006;4.720;2023-03-13T08:34:02;99503.72;;;12.86;100.00
18436;BME280;9346;52.006;4.720;2023-03-13T08:36:31;99481.94;;;12.84;100.00
18436;BME280;9346;52.006;4.720;2023-03-13T08:39:00;99485.53;;;12.85;100.00
18436;BME280;9346;52.006;4.720;2023-03-13T08:41:31;99493.34;;;12.91;100.00
18436;BME280;9346;52.006;4.720;2023-03-13T08:44:01;99493.00;;;12.93;100.00
18436;BME280;9346;52.006;4.720;2023-03-13T08:46:29;99513.66;;;12.95;100.00
18436;BME280;9346;52.006;4.720;2023-03-13T08:48:57;99471.56;;;12.98;100.00
18436;BME280;9346;52.006;4.720;2023-03-13T08:51:25;99474.84;;;13.00;100.00
18436;BME280;9346;52.006;4.720;2023-03-13T08:53:54;99454.06;;;13.11;100.00
18436;BME280;9346;52.006;4.720;2023-03-13T08:56:23;99458.28;;;13.17;100.00
18436;BME280;9346;52.006;4.720;2023-03-13T08:58:51;99441.69;;;13.26;100.00
18436;BME280;9346;52.006;4.720;2023-03-13T09:01:21;99448.38;;;13.33;100.00
18436;BME280;9346;52.006;4.720;2023-03-13T09:03:49;99442.03;;;13.41;100.00
18436;BME280;9346;52.006;4.720;2023-03-13T09:06:16;99440.38;;;13.49;100.00
18436;BME280;9346;52.006;4.720;2023-03-13T09:08:43;99423.81;;;13.58;100.00
18436;BME280;9346;52.006;4.720;2023-03-13T09:11:12;99418.41;;;13.70;100.00
18436;BME280;9346;52.006;4.720;2023-03-13T09:13:41;99419.53;;;13.77;100.00
18436;BME280;9346;52.006;4.720;2023-03-13T09:16:11;99406.66;;;13.90;100.00
18436;BME280;9346;52.006;4.720;2023-03-13T09:18:41;99414.91;;;13.98;100.00
18436;BME280;9346;52.006;4.720;2023-03-13T09:21:11;99381.66;;;14.07;100.00
18436;BME280;9346;52.006;4.720;2023-03-13T09:23:38;99385.72;;;14.09;100.00
18436;BME280;9346;52.006;4.720;2023-03-13T09:26:05;99380.69;;;14.11;100.00
18436;BME280;9346;52.006;4.720;2023-03-13T09:28:33;99367.59;;;14.20;100.00
18436;BME280;9346;52.006;4.720;2023-03-13T09:31:07;99371.34;;;14.24;100.00
18436;BME280;9346;52.006;4.720;2023-03-13T09:33:35;99373.47;;;14.27;100.00
18436;BME280;9346;52.006;4.720;2023-03-13T09:36:05;99362.19;;;14.32;100.00
18436;BME280;9346;52.006;4.720;2023-03-13T09:38:32;99360.03;;;14.38;100.00
18436;BME280;9346;52.006;4.720;2023-03-13T09:41:03;99362.63;;;14.43;100.00
18436;BME280;9346;52.006;4.720;2023-03-13T09:43:38;99351.22;;;14.44;100.00
18436;BME280;9346;52.006;4.720;2023-03-13T09:46:12;99338.44;;;14.52;100.00
18436;BME280;9346;52.006;4.720;2023-03-13T09:48:43;99329.25;;;14.60;100.00
18436;BME280;9346;52.006;4.720;2023-03-13T09:51:16;99326.75;;;14.67;100.00
18436;BME280;9346;52.006;4.720;2023-03-13T09:53:48;99322.19;;;14.71;100.00
18436;BME280;9346;52.006;4.720;2023-03-13T09:56:21;99326.38;;;14.77;100.00
18436;BME280;9346;52.006;4.720;2023-03-13T09:58:53;99323.59;;;14.77;100.00
18436;BME280;9346;52.006;4.720;2023-03-13T10:01:25;99330.09;;;14.81;100.00
18436;BME280;9346;52.006;4.720;2023-03-13T10:04:10;99324.13;;;14.91;100.00
18436;BME280;9346;52.006;4.720;2023-03-13T10:06:42;99320.09;;;14.88;100.00
18436;BME280;9346;52.006;4.720;2023-03-13T10:09:16;99329.53;;;14.87;100.00
18436;BME280;9346;52.006;4.720;2023-03-13T10:11:51;99327.59;;;14.88;100.00
18436;BME280;9346;52.006;4.720;2023-03-13T10:14:28;99312.81;;;14.96;100.00
18436;BME280;9346;52.006;4.720;2023-03-13T10:17:01;99324.31;;;15.06;100.00
18436;BME280;9346;52.006;4.720;2023-03-13T10:19:34;99314.31;;;15.14;100.00
18436;BME280;9346;52.006;4.720;2023-03-13T10:22:11;99313.28;;;15.18;100.00
18436;BME280;9346;52.006;4.720;2023-03-13T10:24:45;99315.16;;;15.26;100.00
18436;BME280;9346;52.006;4.720;2023-03-13T10:27:13;99314.38;;;15.26;100.00
18436;BME280;9346;52.006;4.720;2023-03-13T10:29:41;99314.38;;;15.26;100.00
18436;BME280;9346;52.006;4.720;2023-03-13T10:32:12;99313.88;;;15.24;100.00
18436;BME280;9346;52.006;4.720;2023-03-13T10:34:55;99327.06;;;15.27;100.00
18436;BME280;9346;52.006;4.720;2023-03-13T10:37:26;99311.69;;;15.29;100.00
18436;BME280;9346;52.006;4.720;2023-03-13T10:39:53;99312.84;;;15.28;100.00
18436;BME280;9346;52.006;4.720;2023-03-13T10:42:24;99292.91;;;15.35;100.00
18436;BME280;9346;52.006;4.720;2023-03-13T10:44:58;99282.66;;;15.47;100.00
18436;BME280;9346;52.006;4.720;2023-03-13T10:47:26;99292.38;;;15.53;100.00
18436;BME280;9346;52.006;4.720;2023-03-13T10:49:56;99293.91;;;15.51;100.00
18436;BME280;9346;52.006;4.720;2023-03-13T10:52:34;99269.84;;;15.55;100.00
18436;BME280;9346;52.006;4.720;2023-03-13T10:55:04;99284.44;;;15.64;100.00
18436;BME280;9346;52.006;4.720;2023-03-13T10:57:32;99276.91;;;15.64;100.00
18436;BME280;9346;52.006;4.720;2023-03-13T11:00:03;99267.19;;;15.71;100.00
18436;BME280;9346;52.006;4.720;2023-03-13T11:02:36;99270.13;;;15.74;100.00
18436;BME280;9346;52.006;4.720;2023-03-13T11:05:32;99257.03;;;15.75;100.00
18436;BME280;9346;52.006;4.720;2023-03-13T11:08:20;99259.34;;;15.85;100.00
18436;BME280;9346;52.006;4.720;2023-03-13T11:10:54;99258.31;;;15.89;100.00
18436;BME280;9346;52.006;4.720;2023-03-13T11:13:30;99273.81;;;15.90;100.00
18436;BME280;9346;52.006;4.720;2023-03-13T11:16:04;99262.38;;;15.92;100.00
18436;BME280;9346;52.006;4.720;2023-03-13T11:18:39;99261.22;;;15.93;100.00
18436;BME280;9346;52.006;4.720;2023-03-13T11:21:09;99263.75;;;15.98;100.00
18436;BME280;9346;52.006;4.720;2023-03-13T11:23:44;99254.97;;;15.96;100.00
18436;BME280;9346;52.006;4.720;2023-03-13T11:26:16;99267.22;;;15.95;100.00
18436;BME280;9346;52.006;4.720;2023-03-13T11:28:52;99281.69;;;15.88;100.00
18436;BME280;9346;52.006;4.720;2023-03-13T11:31:24;99280.84;;;15.88;100.00
18436;BME280;9346;52.006;4.720;2023-03-13T11:34:01;99283.19;;;15.86;100.00
18436;BME280;9346;52.006;4.720;2023-03-13T11:36:34;99290.13;;;15.80;100.00
18436;BME280;9346;52.006;4.720;2023-03-13T11:39:15;99290.81;;;15.77;100.00
18436;BME280;9346;52.006;4.720;2023-03-13T11:41:56;99280.41;;;15.74;100.00
18436;BME280;9346;52.006;4.720;2023-03-13T11:44:30;99263.75;;;15.74;100.00
18436;BME280;9346;52.006;4.720;2023-03-13T11:47:11;99261.78;;;15.74;100.00
18436;BME280;9346;52.006;4.720;2023-03-13T11:49:58;99274.84;;;15.74;100.00
18436;BME280;9346;52.006;4.720;2023-03-13T11:52:39;99268.47;;;15.73;100.00
18436;BME280;9346;52.006;4.720;2023-03-13T11:55:19;99263.38;;;15.75;100.00
18436;BME280;9346;52.006;4.720;2023-03-13T11:57:58;99270.91;;;15.75;100.00
18436;BME280;9346;52.006;4.720;2023-03-13T12:00:30;99240.97;;;15.80;100.00
18436;BME280;9346;52.006;4.720;2023-03-13T12:03:04;99267.56;;;15.81;100.00
18436;BME280;9346;52.006;4.720;2023-03-13T12:05:40;99225.22;;;15.84;100.00
18436;BME280;9346;52.006;4.720;2023-03-13T12:08:11;99219.00;;;15.87;100.00
18436;BME280;9346;52.006;4.720;2023-03-13T12:10:46;99224.06;;;15.97;100.00
18436;BME280;9346;52.006;4.720;2023-03-13T12:13:19;99225.13;;;16.05;100.00
18436;BME280;9346;52.006;4.720;2023-03-13T12:15:50;99238.19;;;16.04;100.00
18436;BME280;9346;52.006;4.720;2023-03-13T12:18:22;99232.97;;;16.03;100.00
18436;BME280;9346;52.006;4.720;2023-03-13T12:20:55;99236.31;;;16.08;100.00
18436;BME280;9346;52.006;4.720;2023-03-13T12:23:31;99241.88;;;16.08;100.00
18436;BME280;9346;52.006;4.720;2023-03-13T12:26:05;99226.59;;;16.14;100.00
18436;BME280;9346;52.006;4.720;2023-03-13T12:28:38;99224.72;;;16.18;100.00
18436;BME280;9346;52.006;4.720;2023-03-13T12:31:17;99239.56;;;16.22;100.00
18436;BME280;9346;52.006;4.720;2023-03-13T12:33:51;99232.22;;;16.30;100.00
18436;BME280;9346;52.006;4.720;2023-03-13T12:36:23;99247.53;;;16.24;100.00
18436;BME280;9346;52.006;4.720;2023-03-13T12:38:55;99220.81;;;16.19;100.00
18436;BME280;9346;52.006;4.720;2023-03-13T12:41:27;99243.59;;;16.13;100.00
18436;BME280;9346;52.006;4.720;2023-03-13T12:43:57;99204.03;;;16.04;100.00
18436;BME280;9346;52.006;4.720;2023-03-13T12:46:40;99229.06;;;15.92;100.00
18436;BME280;9346;52.006;4.720;2023-03-13T12:49:36;99221.28;;;15.85;100.00
18436;BME280;9346;52.006;4.720;2023-03-13T12:55:05;99209.50;;;15.88;100.00
18436;BME280;9346;52.006;4.720;2023-03-13T13:01:01;99206.97;;;15.83;100.00
18436;BME280;9346;52.006;4.720;2023-03-13T13:03:35;99210.09;;;15.82;100.00
18436;BME280;9346;52.006;4.720;2023-03-13T13:06:08;99217.81;;;15.76;100.00
18436;BME280;9346;52.006;4.720;2023-03-13T13:08:40;99211.34;;;15.72;100.00
18436;BME280;9346;52.006;4.720;2023-03-13T13:11:45;99215.28;;;15.71;100.00
18436;BME280;9346;52.006;4.720;2023-03-13T13:17:29;99208.91;;;15.71;100.00
18436;BME280;9346;52.006;4.720;2023-03-13T13:20:31;99203.25;;;15.67;100.00
18436;BME280;9346;52.006;4.720;2023-03-13T13:32:46;99205.53;;;15.41;100.00